sensor_id;sensor_type;location;lat;lon;timestamp;pressure;altitude;pressure_sealevel;temperature;humidity
50380;BME280;37474;59.468;18.040;2024-03-02T00:01:24;101356.47;;;2.82;100.00
50380;BME280;37474;59.468;18.040;2024-03-02T00:03:53;101350.59;;;2.71;100.00
50380;BME280;37474;59.468;18.040;2024-03-02T00:06:22;101362.56;;;2.69;100.00
50380;BME280;37474;59.468;18.040;2024-03-02T00:08:57;101369.31;;;2.76;100.00
50380;BME280;37474;59.468;18.040;2024-03-02T00:11:25;101363.34;;;2.77;100.00
50380;BME280;37474;59.468;18.040;2024-03-02T00:13:54;101364.25;;;2.73;100.00
50380;BME280;37474;59.468;18.040;2024-03-02T00:16:22;101366.88;;;2.67;100.00
50380;BME280;37474;59.468;18.040;2024-03-02T00:18:51;101364.25;;;2.72;100.00
50380;BME280;37474;59.468;18.040;2024-03-02T00:21:19;101345.56;;;2.60;100.00
50380;BME280;37474;59.468;18.040;2024-03-02T00:23:49;101353.19;;;2.68;100.00
50380;BME280;37474;59.468;18.040;2024-03-02T00:26:20;101363.47;;;2.63;100.00
50380;BME280;37474;59.468;18.040;2024-03-02T00:28:48;101354.09;;;2.64;100.00
50380;BME280;37474;59.468;18.040;2024-03-02T00:31:19;101365.19;;;2.63;100.00
50380;BME280;37474;59.468;18.040;2024-03-02T00:33:48;101362.59;;;2.64;100.00
50380;BME280;37474;59.468;18.040;2024-03-02T00:36:22;101354.13;;;2.58;100.00
50380;BME280;37474;59.468;18.040;2024-03-02T00:38:53;101350.69;;;2.60;100.00
50380;BME280;37474;59.468;18.040;2024-03-02T00:41:24;101346.44;;;2.61;100.00
50380;BME280;37474;59.468;18.040;2024-03-02T00:44:03;101354.13;;;2.59;100.00
50380;BME280;37474;59.468;18.040;2024-03-02T00:46:34;101354.13;;;2.59;100.00
50380;BME280;37474;59.468;18.040;2024-03-02T00:49:03;101351.56;;;2.58;100.00
50380;BME280;37474;59.468;18.040;2024-03-02T00:51:33;101355.06;;;2.51;100.00
50380;BME280;37474;59.468;18.040;2024-03-02T00:54:03;101352.44;;;2.55;100.00
50380;BME280;37474;59.468;18.040;2024-03-02T00:56:33;101355.00;;;2.54;100.00
50380;BME280;37474;59.468;18.040;2024-03-02T00:59:02;101353.34;;;2.50;100.00
50380;BME280;37474;59.468;18.040;2024-03-02T01:01:30;101350.78;;;2.50;100.00
50380;BME280;37474;59.468;18.040;2024-03-02T01:03:58;101353.34;;;2.48;100.00
50380;BME280;37474;59.468;18.040;2024-03-02T01:06:26;101356.75;;;2.52;100.00
50380;BME280;37474;59.468;18.040;2024-03-02T01:08:54;101351.66;;;2.49;100.00
50380;BME280;37474;59.468;18.040;2024-03-02T01:11:23;101354.25;;;2.43;100.00
50380;BME280;37474;59.468;18.040;2024-03-02T01:13:52;101361.06;;;2.47;100.00
50380;BME280;37474;59.468;18.040;2024-03-02T01:16:20;101357.66;;;2.46;100.00
50380;BME280;37474;59.468;18.040;2024-03-02T01:18:48;101357.72;;;2.35;100.00
50380;BME280;37474;59.468;18.040;2024-03-02T01:21:17;101355.13;;;2.38;100.00
50380;BME280;37474;59.468;18.040;2024-03-02T01:23:45;101366.22;;;2.41;100.00
50380;BME280;37474;59.468;18.040;2024-03-02T01:26:13;101360.31;;;2.34;100.00
50380;BME280;37474;59.468;18.040;2024-03-02T01:28:41;101367.09;;;2.36;100.00
50380;BME280;37474;59.468;18.040;2024-03-02T01:31:10;101370.53;;;2.35;100.00
50380;BME280;37474;59.468;18.040;2024-03-02T01:33:38;101366.31;;;2.25;100.00
50380;BME280;37474;59.468;18.040;2024-03-02T01:36:06;101375.66;;;2.31;100.00
50380;BME280;37474;59.468;18.040;2024-03-02T01:38:35;101368.88;;;2.27;100.00
50380;BME280;37474;59.468;18.040;2024-03-02T01:41:03;101379.16;;;2.19;100.00
50380;BME280;37474;59.468;18.040;2024-03-02T01:43:31;101374.91;;;2.20;100.00
50380;BME280;37474;59.468;18.040;2024-03-02T01:45:59;101373.22;;;2.16;100.00
50380;BME280;37474;59.468;18.040;2024-03-02T01:48:29;101371.53;;;2.15;100.00
50380;BME280;37474;59.468;18.040;2024-03-02T01:50:57;101374.06;;;2.18;100.00
50380;BME280;37474;59.468;18.040;2024-03-02T01:53:25;101368.09;;;2.19;100.00
50380;BME280;37474;59.468;18.040;2024-03-02T01:55:53;101364.69;;;2.18;100.00
50380;BME280;37474;59.468;18.040;2024-03-02T01:58:21;101359.63;;;2.12;100.00
50380;BME280;37474;59.468;18.040;2024-03-02T02:00:50;101368.97;;;2.13;100.00
50380;BME280;37474;59.468;18.040;2024-03-02T02:03:18;101371.53;;;2.10;100.00
50380;BME280;37474;59.468;18.040;2024-03-02T02:05:48;101363.00;;;2.13;100.00
50380;BME280;37474;59.468;18.040;2024-03-02T02:08:16;101352.84;;;2.03;100.00
50380;BME280;37474;59.468;18.040;2024-03-02T02:10:44;101364.72;;;2.12;100.00
50380;BME280;37474;59.468;18.040;2024-03-02T02:13:12;101351.94;;;2.12;100.00
50380;BME280;37474;59.468;18.040;2024-03-02T02:15:40;101366.41;;;2.13;100.00
50380;BME280;37474;59.468;18.040;2024-03-02T02:18:09;101351.97;;;2.04;100.00
50380;BME280;37474;59.468;18.040;2024-03-02T02:20:37;101366.44;;;2.08;100.00
50380;BME280;37474;59.468;18.040;2024-03-02T02:23:06;101359.59;;;2.10;100.00
50380;BME280;37474;59.468;18.040;2024-03-02T02:25:36;101370.72;;;2.08;100.00
50380;BME280;37474;59.468;18.040;2024-03-02T02:28:05;101368.16;;;2.08;100.00
50380;BME280;37474;59.468;18.040;2024-03-02T02:30:34;101361.31;;;2.10;100.00
50380;BME280;37474;59.468;18.040;2024-03-02T02:33:02;101369.00;;;2.11;100.00
50380;BME280;37474;59.468;18.040;2024-03-02T02:35:31;101368.13;;;2.13;100.00
50380;BME280;37474;59.468;18.040;2024-03-02T02:37:59;101369.84;;;2.09;100.00
50380;BME280;37474;59.468;18.040;2024-03-02T02:40:29;101369.03;;;2.07;100.00
50380;BME280;37474;59.468;18.040;2024-03-02T02:42:57;101360.47;;;2.08;100.00
50380;BME280;37474;59.468;18.040;2024-03-02T02:45:26;101372.41;;;2.09;100.00
50380;BME280;37474;59.468;18.040;2024-03-02T02:47:55;101366.44;;;2.10;100.00
50380;BME280;37474;59.468;18.040;2024-03-02T02:50:23;101364.75;;;2.07;100.00
50380;BME280;37474;59.468;18.040;2024-03-02T02:52:51;101369.03;;;2.07;100.00
50380;BME280;37474;59.468;18.040;2024-03-02T02:55:20;101373.28;;;2.08;100.00
50380;BME280;37474;59.468;18.040;2024-03-02T02:57:49;101363.91;;;2.07;100.00
50380;BME280;37474;59.468;18.040;2024-03-02T03:00:18;101360.53;;;2.02;100.00
50380;BME280;37474;59.468;18.040;2024-03-02T03:02:48;101356.22;;;2.05;100.00
50380;BME280;37474;59.468;18.040;2024-03-02T03:05:17;101355.38;;;2.05;100.00
50380;BME280;37474;59.468;18.040;2024-03-02T03:07:45;101353.75;;;1.96;100.00
50380;BME280;37474;59.468;18.040;2024-03-02T03:10:17;101355.44;;;1.96;100.00
50380;BME280;37474;59.468;18.040;2024-03-02T03:12:45;101360.53;;;2.00;100.00
50380;BME280;37474;59.468;18.040;2024-03-02T03:15:15;101355.50;;;1.90;100.00
50380;BME280;37474;59.468;18.040;2024-03-02T03:17:44;101369.94;;;1.94;100.00
50380;BME280;37474;59.468;18.040;2024-03-02T03:20:14;101352.88;;;1.94;100.00
50380;BME280;37474;59.468;18.040;2024-03-02T03:22:42;101354.59;;;1.95;100.00
50380;BME280;37474;59.468;18.040;2024-03-02T03:25:10;101357.19;;;1.89;100.00
50380;BME280;37474;59.468;18.040;2024-03-02T03:27:39;101370.78;;;1.93;100.00
50380;BME280;37474;59.468;18.040;2024-03-02T03:30:09;101353.81;;;1.85;100.00
50380;BME280;37474;59.468;18.040;2024-03-02T03:32:39;101358.03;;;1.90;100.00
50380;BME280;37474;59.468;18.040;2024-03-02T03:35:07;101360.59;;;1.90;100.00
50380;BME280;37474;59.468;18.040;2024-03-02T03:37:35;101359.75;;;1.88;100.00
50380;BME280;37474;59.468;18.040;2024-03-02T03:40:05;101360.63;;;1.82;100.00
50380;BME280;37474;59.468;18.040;2024-03-02T03:42:37;101354.69;;;1.78;100.00
50380;BME280;37474;59.468;18.040;2024-03-02T03:45:07;101363.16;;;1.88;100.00
50380;BME280;37474;59.468;18.040;2024-03-02T03:47:35;101362.34;;;1.81;100.00
50380;BME280;37474;59.468;18.040;2024-03-02T03:50:06;101369.13;;;1.87;100.00
50380;BME280;37474;59.468;18.040;2024-03-02T03:52:35;101375.13;;;1.81;100.00
50380;BME280;37474;59.468;18.040;2024-03-02T03:55:03;101356.44;;;1.73;100.00
50380;BME280;37474;59.468;18.040;2024-03-02T03:57:32;101380.22;;;1.83;100.00
50380;BME280;37474;59.468;18.040;2024-03-02T04:00:00;101375.97;;;1.83;100.00
50380;BME280;37474;59.468;18.040;2024-03-02T04:02:28;101378.50;;;1.87;100.00
50380;BME280;37474;59.468;18.040;2024-03-02T04:04:56;101372.53;;;1.83;100.00
50380;BME280;37474;59.468;18.040;2024-03-02T04:07:26;101386.16;;;1.90;100.00
50380;BME280;37474;59.468;18.040;2024-03-02T04:09:54;101387.88;;;1.91;100.00
50380;BME280;37474;59.468;18.040;2024-03-02T04:12:22;101383.59;;;1.88;100.00
50380;BME280;37474;59.468;18.040;2024-03-02T04:14:50;101388.72;;;1.87;100.00
50380;BME280;37474;59.468;18.040;2024-03-02T04:17:18;101381.06;;;1.85;100.00
50380;BME280;37474;59.468;18.040;2024-03-02T04:19:46;101376.81;;;1.81;100.00
50380;BME280;37474;59.468;18.040;2024-03-02T04:22:14;101379.38;;;1.82;100.00
50380;BME280;37474;59.468;18.040;2024-03-02T04:24:52;101385.31;;;1.86;100.00
50380;BME280;37474;59.468;18.040;2024-03-02T04:27:20;101381.09;;;1.80;100.00
50380;BME280;37474;59.468;18.040;2024-03-02T04:29:51;101385.34;;;1.81;100.00
50380;BME280;37474;59.468;18.040;2024-03-02T04:32:19;101381.97;;;1.78;100.00
50380;BME280;37474;59.468;18.040;2024-03-02T04:34:50;101371.75;;;1.70;100.00
50380;BME280;37474;59.468;18.040;2024-03-02T04:37:18;101391.31;;;1.77;100.00
50380;BME280;37474;59.468;18.040;2024-03-02T04:39:46;101381.09;;;1.77;100.00
50380;BME280;37474;59.468;18.040;2024-03-02T04:42:15;101387.91;;;1.77;100.00
50380;BME280;37474;59.468;18.040;2024-03-02T04:44:43;101382.03;;;1.67;100.00
50380;BME280;37474;59.468;18.040;2024-03-02T04:47:11;101365.84;;;1.59;100.00
50380;BME280;37474;59.468;18.040;2024-03-02T04:49:39;101399.84;;;1.76;100.00
50380;BME280;37474;59.468;18.040;2024-03-02T04:52:07;101392.22;;;1.73;100.00
50380;BME280;37474;59.468;18.040;2024-03-02T04:54:35;101391.34;;;1.76;100.00
50380;BME280;37474;59.468;18.040;2024-03-02T04:57:26;101402.44;;;1.75;100.00
50380;BME280;37474;59.468;18.040;2024-03-02T04:59:54;101397.34;;;1.67;100.00
50380;BME280;37474;59.468;18.040;2024-03-02T05:02:22;101404.16;;;1.70;100.00
50380;BME280;37474;59.468;18.040;2024-03-02T05:04:50;101405.88;;;1.68;100.00
50380;BME280;37474;59.468;18.040;2024-03-02T05:07:18;101400.75;;;1.69;100.00
50380;BME280;37474;59.468;18.040;2024-03-02T05:09:46;101399.91;;;1.64;100.00
50380;BME280;37474;59.468;18.040;2024-03-02T05:12:15;101390.53;;;1.65;100.00
50380;BME280;37474;59.468;18.040;2024-03-02T05:15:15;101388.81;;;1.65;100.00
50380;BME280;37474;59.468;18.040;2024-03-02T05:17:43;101400.75;;;1.66;100.00
50380;BME280;37474;59.468;18.040;2024-03-02T05:20:12;101394.78;;;1.69;100.00
50380;BME280;37474;59.468;18.040;2024-03-02T05:22:40;101400.75;;;1.66;100.00
50380;BME280;37474;59.468;18.040;2024-03-02T05:25:08;101393.13;;;1.55;100.00
50380;BME280;37474;59.468;18.040;2024-03-02T05:27:37;101393.13;;;1.55;100.00
50380;BME280;37474;59.468;18.040;2024-03-02T05:30:09;101393.97;;;1.59;100.00
50380;BME280;37474;59.468;18.040;2024-03-02T05:32:39;101402.50;;;1.55;100.00
50380;BME280;37474;59.468;18.040;2024-03-02T05:35:07;101394.81;;;1.55;100.00
50380;BME280;37474;59.468;18.040;2024-03-02T05:37:37;101399.97;;;1.43;100.00
50380;BME280;37474;59.468;18.040;2024-03-02T05:40:06;101401.69;;;1.41;100.00
50380;BME280;37474;59.468;18.040;2024-03-02T05:42:35;101392.34;;;1.32;100.00
50380;BME280;37474;59.468;18.040;2024-03-02T05:45:04;101405.97;;;1.40;100.00
50380;BME280;37474;59.468;18.040;2024-03-02T05:47:32;101396.59;;;1.39;100.00
50380;BME280;37474;59.468;18.040;2024-03-02T05:50:02;101404.22;;;1.48;100.00
50380;BME280;37474;59.468;18.040;2024-03-02T05:52:31;101400.81;;;1.52;100.00
50380;BME280;37474;59.468;18.040;2024-03-02T05:54:59;101393.97;;;1.54;100.00
50380;BME280;37474;59.468;18.040;2024-03-02T05:57:27;101405.06;;;1.56;100.00
50380;BME280;37474;59.468;18.040;2024-03-02T06:00:12;101404.19;;;1.59;100.00
50380;BME280;37474;59.468;18.040;2024-03-02T06:02:43;101403.28;;;1.66;100.00
50380;BME280;37474;59.468;18.040;2024-03-02T06:05:13;101416.09;;;1.65;100.00
50380;BME280;37474;59.468;18.040;2024-03-02T06:07:41;101430.53;;;1.76;100.00
50380;BME280;37474;59.468;18.040;2024-03-02T06:10:10;101430.50;;;1.81;100.00
50380;BME280;37474;59.468;18.040;2024-03-02T06:12:40;101402.41;;;1.79;100.00
50380;BME280;37474;59.468;18.040;2024-03-02T06:15:09;101417.72;;;1.82;100.00
50380;BME280;37474;59.468;18.040;2024-03-02T06:17:37;101414.31;;;1.85;100.00
50380;BME280;37474;59.468;18.040;2024-03-02T06:20:06;101418.53;;;1.94;100.00
50380;BME280;37474;59.468;18.040;2024-03-02T06:22:37;101427.88;;;1.99;100.00
50380;BME280;37474;59.468;18.040;2024-03-02T06:25:07;101436.38;;;2.04;100.00
50380;BME280;37474;59.468;18.040;2024-03-02T06:27:35;101437.22;;;2.06;100.00
50380;BME280;37474;59.468;18.040;2024-03-02T06:30:04;101439.72;;;2.14;100.00
50380;BME280;37474;59.468;18.040;2024-03-02T06:32:33;101445.72;;;2.13;100.00
50380;BME280;37474;59.468;18.040;2024-03-02T06:35:01;101425.25;;;2.13;100.00
50380;BME280;37474;59.468;18.040;2024-03-02T06:37:30;101443.09;;;2.21;100.00
50380;BME280;37474;59.468;18.040;2024-03-02T06:40:00;101443.06;;;2.27;100.00
50380;BME280;37474;59.468;18.040;2024-03-02T06:42:29;101454.13;;;2.33;100.00
50380;BME280;37474;59.468;18.040;2024-03-02T06:45:01;101448.13;;;2.39;100.00
50380;BME280;37474;59.468;18.040;2024-03-02T06:47:28;101442.19;;;2.35;100.00
50380;BME280;37474;59.468;18.040;2024-03-02T06:49:57;101449.78;;;2.46;100.00
50380;BME280;37474;59.468;18.040;2024-03-02T06:52:26;101434.38;;;2.49;100.00
50380;BME280;37474;59.468;18.040;2024-03-02T06:54:54;101453.97;;;2.58;100.00
50380;BME280;37474;59.468;18.040;2024-03-02T06:57:24;101456.47;;;2.64;100.00
50380;BME280;37474;59.468;18.040;2024-03-02T06:59:52;101456.47;;;2.65;100.00
50380;BME280;37474;59.468;18.040;2024-03-02T07:02:21;101470.94;;;2.70;100.00
50380;BME280;37474;59.468;18.040;2024-03-02T07:04:49;101464.09;;;2.75;100.00
50380;BME280;37474;59.468;18.040;2024-03-02T07:07:18;101456.41;;;2.78;100.00
50380;BME280;37474;59.468;18.040;2024-03-02T07:09:46;101469.19;;;2.76;100.00
50380;BME280;37474;59.468;18.040;2024-03-02T07:12:14;101468.34;;;2.79;100.00
50380;BME280;37474;59.468;18.040;2024-03-02T07:14:43;101475.91;;;2.88;100.00
50380;BME280;37474;59.468;18.040;2024-03-02T07:17:29;101469.09;;;2.90;100.00
50380;BME280;37474;59.468;18.040;2024-03-02T07:19:58;101464.84;;;2.89;100.00
50380;BME280;37474;59.468;18.040;2024-03-02T07:22:26;101474.19;;;2.91;100.00
50380;BME280;37474;59.468;18.040;2024-03-02T07:24:54;101469.03;;;2.98;100.00
50380;BME280;37474;59.468;18.040;2024-03-02T07:27:25;101471.56;;;2.99;100.00
50380;BME280;37474;59.468;18.040;2024-03-02T07:29:54;101470.63;;;3.09;100.00
50380;BME280;37474;59.468;18.040;2024-03-02T07:32:23;101474.00;;;3.14;100.00
50380;BME280;37474;59.468;18.040;2024-03-02T07:34:50;101468.09;;;3.08;100.00
50380;BME280;37474;59.468;18.040;2024-03-02T07:37:18;101472.28;;;3.18;100.00
50380;BME280;37474;59.468;18.040;2024-03-02T07:39:51;101468.88;;;3.14;100.00
50380;BME280;37474;59.468;18.040;2024-03-02T07:42:19;101473.91;;;3.25;100.00
50380;BME280;37474;59.468;18.040;2024-03-02T07:44:47;101477.28;;;3.30;100.00
50380;BME280;37474;59.468;18.040;2024-03-02T07:47:17;101467.84;;;3.34;100.00
50380;BME280;37474;59.468;18.040;2024-03-02T07:49:45;101466.97;;;3.36;100.00
50380;BME280;37474;59.468;18.040;2024-03-02T07:52:14;101477.19;;;3.38;100.00
50380;BME280;37474;59.468;18.040;2024-03-02T07:54:42;101486.59;;;3.39;100.00
50380;BME280;37474;59.468;18.040;2024-03-02T07:57:10;101488.31;;;3.37;100.00
50380;BME280;37474;59.468;18.040;2024-03-02T07:59:38;101479.75;;;3.41;100.00
50380;BME280;37474;59.468;18.040;2024-03-02T08:02:06;101492.50;;;3.47;100.00
50380;BME280;37474;59.468;18.040;2024-03-02T08:04:36;101480.50;;;3.51;100.00
50380;BME280;37474;59.468;18.040;2024-03-02T08:07:04;101486.47;;;3.50;100.00
50380;BME280;37474;59.468;18.040;2024-03-02T08:09:32;101484.88;;;3.41;100.00
50380;BME280;37474;59.468;18.040;2024-03-02T08:12:01;101495.88;;;3.49;100.00
50380;BME280;37474;59.468;18.040;2024-03-02T08:14:29;101490.75;;;3.49;100.00
50380;BME280;37474;59.468;18.040;2024-03-02T08:16:57;101482.28;;;3.42;100.00
50380;BME280;37474;59.468;18.040;2024-03-02T08:19:25;101489.09;;;3.47;100.00
50380;BME280;37474;59.468;18.040;2024-03-02T08:21:54;101485.63;;;3.51;100.00
50380;BME280;37474;59.468;18.040;2024-03-02T08:24:22;101477.19;;;3.39;100.00
50380;BME280;37474;59.468;18.040;2024-03-02T08:26:50;101495.91;;;3.48;100.00
50380;BME280;37474;59.468;18.040;2024-03-02T08:29:19;101489.91;;;3.50;100.00
50380;BME280;37474;59.468;18.040;2024-03-02T08:31:47;101487.41;;;3.42;100.00
50380;BME280;37474;59.468;18.040;2024-03-02T08:34:19;101492.50;;;3.47;100.00
50380;BME280;37474;59.468;18.040;2024-03-02T08:36:47;101497.63;;;3.46;100.00
50380;BME280;37474;59.468;18.040;2024-03-02T08:39:17;101495.94;;;3.43;100.00
50380;BME280;37474;59.468;18.040;2024-03-02T08:41:46;101495.09;;;3.42;100.00
50380;BME280;37474;59.468;18.040;2024-03-02T08:44:15;101501.91;;;3.45;100.00
50380;BME280;37474;59.468;18.040;2024-03-02T08:46:43;101492.56;;;3.39;100.00
50380;BME280;37474;59.468;18.040;2024-03-02T08:49:12;101497.69;;;3.38;100.00
50380;BME280;37474;59.468;18.040;2024-03-02T08:51:40;101496.84;;;3.40;100.00
50380;BME280;37474;59.468;18.040;2024-03-02T08:54:08;101495.09;;;3.42;100.00
50380;BME280;37474;59.468;18.040;2024-03-02T08:56:38;101492.56;;;3.39;100.00
50380;BME280;37474;59.468;18.040;2024-03-02T08:59:06;101494.28;;;3.40;100.00
50380;BME280;37474;59.468;18.040;2024-03-02T09:01:34;101486.66;;;3.31;100.00
50380;BME280;37474;59.468;18.040;2024-03-02T09:04:02;101494.28;;;3.37;100.00
50380;BME280;37474;59.468;18.040;2024-03-02T09:06:30;101492.56;;;3.39;100.00
50380;BME280;37474;59.468;18.040;2024-03-02T09:08:58;101494.28;;;3.37;100.00
50380;BME280;37474;59.468;18.040;2024-03-02T09:11:26;101498.56;;;3.37;100.00
50380;BME280;37474;59.468;18.040;2024-03-02T09:13:56;101491.78;;;3.31;100.00
50380;BME280;37474;59.468;18.040;2024-03-02T09:16:24;101500.28;;;3.39;100.00
50380;BME280;37474;59.468;18.040;2024-03-02T09:18:57;101499.34;;;3.43;100.00
50380;BME280;37474;59.468;18.040;2024-03-02T09:21:26;101507.97;;;3.39;100.00
50380;BME280;37474;59.468;18.040;2024-03-02T09:23:53;101519.00;;;3.46;100.00
50380;BME280;37474;59.468;18.040;2024-03-02T09:26:23;101508.72;;;3.48;100.00
50380;BME280;37474;59.468;18.040;2024-03-02T09:28:53;101515.53;;;3.50;100.00
50380;BME280;37474;59.468;18.040;2024-03-02T09:31:23;101501.00;;;3.52;100.00
50380;BME280;37474;59.468;18.040;2024-03-02T09:33:51;101506.06;;;3.57;100.00
50380;BME280;37474;59.468;18.040;2024-03-02T09:36:22;101494.94;;;3.58;100.00
50380;BME280;37474;59.468;18.040;2024-03-02T09:38:50;101494.91;;;3.62;100.00
50380;BME280;37474;59.468;18.040;2024-03-02T09:41:18;101494.84;;;3.68;100.00
50380;BME280;37474;59.468;18.040;2024-03-02T09:43:47;101493.88;;;3.77;100.00
50380;BME280;37474;59.468;18.040;2024-03-02T09:46:15;101493.84;;;3.80;100.00
50380;BME280;37474;59.468;18.040;2024-03-02T09:48:45;101510.00;;;3.87;100.00
50380;BME280;37474;59.468;18.040;2024-03-02T09:51:13;101509.00;;;4.02;100.00
50380;BME280;37474;59.468;18.040;2024-03-02T09:53:42;101519.09;;;4.14;100.00
50380;BME280;37474;59.468;18.040;2024-03-02T09:56:10;101510.53;;;4.15;100.00
50380;BME280;37474;59.468;18.040;2024-03-02T09:58:38;101518.16;;;4.21;100.00
50380;BME280;37474;59.468;18.040;2024-03-02T10:01:06;101513.72;;;4.32;100.00
50380;BME280;37474;59.468;18.040;2024-03-02T10:03:36;101514.50;;;4.40;100.00
50380;BME280;37474;59.468;18.040;2024-03-02T10:06:23;101515.38;;;4.38;100.00
50380;BME280;37474;59.468;18.040;2024-03-02T10:08:52;101516.28;;;4.35;100.00
50380;BME280;37474;59.468;18.040;2024-03-02T10:11:28;101529.13;;;4.32;100.00
50380;BME280;37474;59.468;18.040;2024-03-02T10:14:05;101512.13;;;4.25;100.00
50380;BME280;37474;59.468;18.040;2024-03-02T10:16:35;101496.94;;;4.08;100.00
50380;BME280;37474;59.468;18.040;2024-03-02T10:19:19;101514.75;;;4.20;100.00
50380;BME280;37474;59.468;18.040;2024-03-02T10:21:50;101512.28;;;4.13;100.00
50380;BME280;37474;59.468;18.040;2024-03-02T10:24:19;101516.72;;;4.00;100.00
50380;BME280;37474;59.468;18.040;2024-03-02T10:26:48;101514.13;;;4.02;100.00
50380;BME280;37474;59.468;18.040;2024-03-02T10:29:16;101512.34;;;4.07;100.00
50380;BME280;37474;59.468;18.040;2024-03-02T10:31:45;101517.34;;;4.16;100.00
50380;BME280;37474;59.468;18.040;2024-03-02T10:34:13;101508.84;;;4.14;100.00
50380;BME280;37474;59.468;18.040;2024-03-02T10:36:44;101502.97;;;4.06;100.00
50380;BME280;37474;59.468;18.040;2024-03-02T10:39:14;101517.50;;;4.04;100.00
50380;BME280;37474;59.468;18.040;2024-03-02T10:41:44;101522.69;;;3.99;100.00
50380;BME280;37474;59.468;18.040;2024-03-02T10:44:13;101510.84;;;3.87;100.00
50380;BME280;37474;59.468;18.040;2024-03-02T10:46:43;101502.38;;;3.82;100.00
50380;BME280;37474;59.468;18.040;2024-03-02T10:49:13;101518.56;;;3.87;100.00
50380;BME280;37474;59.468;18.040;2024-03-02T10:51:41;101507.47;;;3.85;100.00
50380;BME280;37474;59.468;18.040;2024-03-02T10:54:09;101510.84;;;3.90;100.00
50380;BME280;37474;59.468;18.040;2024-03-02T10:56:40;101510.00;;;3.90;100.00
50380;BME280;37474;59.468;18.040;2024-03-02T10:59:16;101513.44;;;3.86;100.00
50380;BME280;37474;59.468;18.040;2024-03-02T11:01:48;101515.09;;;3.91;100.00
50380;BME280;37474;59.468;18.040;2024-03-02T11:04:18;101514.34;;;3.83;100.00
50380;BME280;37474;59.468;18.040;2024-03-02T11:06:49;101510.91;;;3.84;100.00
50380;BME280;37474;59.468;18.040;2024-03-02T11:09:20;101518.50;;;3.92;100.00
50380;BME280;37474;59.468;18.040;2024-03-02T11:11:56;101511.59;;;4.00;100.00
50380;BME280;37474;59.468;18.040;2024-03-02T11:14:30;101514.94;;;4.04;100.00
50380;BME280;37474;59.468;18.040;2024-03-02T11:17:00;101519.13;;;4.11;100.00
50380;BME280;37474;59.468;18.040;2024-03-02T11:19:30;101514.91;;;4.05;100.00
50380;BME280;37474;59.468;18.040;2024-03-02T11:21:59;101512.38;;;4.04;100.00
50380;BME280;37474;59.468;18.040;2024-03-02T11:24:29;101513.25;;;4.03;100.00
50380;BME280;37474;59.468;18.040;2024-03-02T11:27:06;101514.31;;;3.85;100.00
50380;BME280;37474;59.468;18.040;2024-03-02T11:29:45;101515.16;;;3.87;100.00
50380;BME280;37474;59.468;18.040;2024-03-02T11:32:15;101506.59;;;3.89;100.00
50380;BME280;37474;59.468;18.040;2024-03-02T11:34:45;101520.19;;;3.96;100.00
50380;BME280;37474;59.468;18.040;2024-03-02T11:37:13;101512.47;;;3.96;100.00
50380;BME280;37474;59.468;18.040;2024-03-02T11:39:44;101515.72;;;4.10;100.00
50380;BME280;37474;59.468;18.040;2024-03-02T11:42:14;101506.44;;;4.02;100.00
50380;BME280;37474;59.468;18.040;2024-03-02T11:44:42;101509.00;;;4.02;100.00
50380;BME280;37474;59.468;18.040;2024-03-02T11:47:12;101505.56;;;4.03;100.00
50380;BME280;37474;59.468;18.040;2024-03-02T11:49:46;101508.03;;;4.10;100.00
50380;BME280;37474;59.468;18.040;2024-03-02T11:52:17;101509.75;;;4.11;100.00
50380;BME280;37474;59.468;18.040;2024-03-02T11:54:46;101512.38;;;4.04;100.00
50380;BME280;37474;59.468;18.040;2024-03-02T11:57:18;101513.38;;;3.92;100.00
50380;BME280;37474;59.468;18.040;2024-03-02T11:59:48;101521.03;;;3.96;100.00
50380;BME280;37474;59.468;18.040;2024-03-02T12:02:18;101516.66;;;4.03;100.00
50380;BME280;37474;59.468;18.040;2024-03-02T12:04:47;101510.66;;;4.06;100.00
50380;BME280;37474;59.468;18.040;2024-03-02T12:07:18;101515.91;;;3.96;100.00
50380;BME280;37474;59.468;18.040;2024-03-02T12:09:47;101522.72;;;3.97;100.00
50380;BME280;37474;59.468;18.040;2024-03-02T12:12:16;101511.69;;;3.91;100.00
50380;BME280;37474;59.468;18.040;2024-03-02T12:14:51;101514.28;;;3.89;100.00
50380;BME280;37474;59.468;18.040;2024-03-02T12:17:19;101507.44;;;3.87;100.00
50380;BME280;37474;59.468;18.040;2024-03-02T12:19:47;101523.63;;;3.93;100.00
50380;BME280;37474;59.468;18.040;2024-03-02T12:22:16;101505.72;;;3.87;100.00
50380;BME280;37474;59.468;18.040;2024-03-02T12:24:44;101515.09;;;3.91;100.00
50380;BME280;37474;59.468;18.040;2024-03-02T12:27:15;101522.00;;;3.86;100.00
50380;BME280;37474;59.468;18.040;2024-03-02T12:29:44;101521.13;;;3.87;100.00
50380;BME280;37474;59.468;18.040;2024-03-02T12:32:12;101516.09;;;3.80;100.00
50380;BME280;37474;59.468;18.040;2024-03-02T12:34:41;101528.00;;;3.82;100.00
50380;BME280;37474;59.468;18.040;2024-03-02T12:37:11;101527.22;;;3.79;100.00
50380;BME280;37474;59.468;18.040;2024-03-02T12:39:40;101511.09;;;3.66;100.00
50380;BME280;37474;59.468;18.040;2024-03-02T12:42:08;101517.03;;;3.73;100.00
50380;BME280;37474;59.468;18.040;2024-03-02T12:44:36;101513.63;;;3.69;100.00
50380;BME280;37474;59.468;18.040;2024-03-02T12:47:05;101511.88;;;3.74;100.00
50380;BME280;37474;59.468;18.040;2024-03-02T12:49:35;101507.63;;;3.73;100.00
50380;BME280;37474;59.468;18.040;2024-03-02T12:52:03;101509.41;;;3.65;100.00